Time;durP1;ratioP1;P1;durP2;ratioP2;P2;SDS_P1;SDS_P2;PMS_P1;PMS_P2;Temp;Humidity;BMP_temperature;BMP_pressure;BME280_temperature;BME280_humidity;BME280_pressure;Samples;Min_cycle;Max_cycle;Signal;HPM_P1;HPM_P2
2022/06/16 00:03:59;;;;;;;;;;;;;;;21.06;53.29;99738.66;1084619;54;19943;-80
2022/06/16 00:05:00;;;;;;;;;;;;;;;21.04;53.43;99738.03;1084514;54;19950;-78
2022/06/16 00:06:04;;;;;;;;;;;;;;;20.98;53.66;99742.47;1084415;54;19954;-79
2022/06/16 00:07:05;;;;;;;;;;;;;;;20.94;53.43;99741.25;1085074;54;19994;-79
2022/06/16 00:08:10;;;;;;;;;;;;;;;20.89;53.48;99746.50;1085783;39;20412;-77
2022/06/16 00:09:11;;;;;;;;;;;;;;;20.87;54.01;99749.44;1083898;54;19974;-79
2022/06/16 00:10:16;;;;;;;;;;;;;;;20.86;54.13;99755.13;1085661;39;20068;-78
2022/06/16 00:11:17;;;;;;;;;;;;;;;20.82;54.53;99753.88;1087132;54;20019;-78
2022/06/16 00:12:21;;;;;;;;;;;;;;;20.80;54.49;99747.81;1083551;54;19946;-79
2022/06/16 00:13:22;;;;;;;;;;;;;;;20.77;54.75;99748.28;1083261;54;19947;-78
2022/06/16 00:14:27;;;;;;;;;;;;;;;20.72;55.52;99747.00;1083404;54;19953;-78
2022/06/16 00:15:29;;;;;;;;;;;;;;;20.70;55.92;99759.97;1083432;54;19947;-77
2022/06/16 00:16:33;;;;;;;;;;;;;;;20.68;55.70;99753.94;1083258;54;19951;-77
2022/06/16 00:17:34;;;;;;;;;;;;;;;20.69;55.66;99752.88;1083924;39;20388;-79
2022/06/16 00:18:38;;;;;;;;;;;;;;;20.66;55.86;99745.19;1083863;54;19981;-78
2022/06/16 00:19:45;;;;;;;;;;;;;;;20.61;56.44;99750.41;1084182;54;19970;-79
2022/06/16 00:20:46;;;;;;;;;;;;;;;20.50;57.03;99743.81;1086058;39;20001;-78
2022/06/16 00:21:50;;;;;;;;;;;;;;;20.48;56.96;99742.38;1084183;54;19938;-78
2022/06/16 00:22:51;;;;;;;;;;;;;;;20.41;57.33;99747.81;1084456;39;20336;-77
2022/06/16 00:23:55;;;;;;;;;;;;;;;20.37;57.80;99744.72;1084037;54;19950;-78
2022/06/16 00:24:57;;;;;;;;;;;;;;;20.40;57.66;99748.88;1084062;54;20417;-78
2022/06/16 00:26:01;;;;;;;;;;;;;;;20.37;58.21;99747.44;1083970;54;19955;-78
2022/06/16 00:27:03;;;;;;;;;;;;;;;20.37;57.97;99750.16;1084384;39;20372;-78
2022/06/16 00:28:07;;;;;;;;;;;;;;;20.35;58.57;99746.81;1084068;54;20432;-77
2022/06/16 00:29:09;;;;;;;;;;;;;;;20.36;58.27;99748.47;1083904;54;19946;-78
2022/06/16 00:30:21;;;;;;;;;;;;;;;20.31;58.30;99751.00;1084236;39;20705;-78
2022/06/16 00:31:23;;;;;;;;;;;;;;;20.18;58.83;99751.88;1083868;54;20041;-78
2022/06/16 00:32:27;;;;;;;;;;;;;;;20.13;59.08;99745.44;1083777;54;19973;-78
2022/06/16 00:33:28;;;;;;;;;;;;;;;20.13;59.20;99742.72;1083889;54;19970;-79
2022/06/16 00:34:32;;;;;;;;;;;;;;;20.10;59.22;99744.84;1083519;54;19950;-78
2022/06/16 00:35:36;;;;;;;;;;;;;;;20.05;59.08;99739.22;1083014;54;19947;-79
2022/06/16 00:36:39;;;;;;;;;;;;;;;20.02;59.20;99741.53;1083346;54;19947;-77
2022/06/16 00:37:40;;;;;;;;;;;;;;;20.11;58.53;99740.25;1083451;54;20484;-77
2022/06/16 00:38:44;;;;;;;;;;;;;;;20.13;58.40;99748.16;1083484;54;19977;-77
2022/06/16 00:39:46;;;;;;;;;;;;;;;19.98;58.95;99743.03;1083529;54;19945;-78
2022/06/16 00:40:50;;;;;;;;;;;;;;;19.98;58.56;99748.44;1083786;54;20041;-77
2022/06/16 00:41:51;;;;;;;;;;;;;;;19.92;58.54;99742.00;1083527;54;20446;-78
2022/06/16 00:42:55;;;;;;;;;;;;;;;19.83;58.93;99748.66;1083602;54;19958;-78
2022/06/16 00:43:58;;;;;;;;;;;;;;;19.85;58.96;99746.56;1084072;39;20367;-77
2022/06/16 00:45:02;;;;;;;;;;;;;;;19.84;58.78;99742.19;1083462;54;19947;-77
2022/06/16 00:46:04;;;;;;;;;;;;;;;19.79;58.96;99743.66;1083492;54;19970;-76
2022/06/16 00:47:08;;;;;;;;;;;;;;;19.76;59.20;99738.66;1083788;54;19954;-78
2022/06/16 00:48:10;;;;;;;;;;;;;;;19.71;59.22;99743.88;1083660;54;20448;-77
2022/06/16 00:49:15;;;;;;;;;;;;;;;19.72;59.22;99742.00;1083841;54;19946;-77
2022/06/16 00:50:17;;;;;;;;;;;;;;;19.72;59.29;99739.28;1083798;54;19938;-77
2022/06/16 00:51:27;;;;;;;;;;;;;;;19.71;59.33;99734.91;1086006;46;19952;-78
2022/06/16 00:52:30;;;;;;;;;;;;;;;19.67;59.66;99737.22;1085799;54;19946;-78
2022/06/16 00:53:43;;;;;;;;;;;;;;;19.68;59.84;99738.06;1085752;54;19954;-78
2022/06/16 00:54:47;;;;;;;;;;;;;;;19.61;59.96;99740.78;1086117;54;19939;-78
2022/06/16 00:55:51;;;;;;;;;;;;;;;19.58;60.08;99742.03;1085788;46;19939;-77
2022/06/16 00:56:53;;;;;;;;;;;;;;;19.49;60.35;99738.72;1085713;54;19946;-78
2022/06/16 00:57:57;;;;;;;;;;;;;;;19.50;60.51;99731.44;1085592;54;19938;-78
2022/06/16 00:59:01;;;;;;;;;;;;;;;19.52;60.40;99736.63;1085370;54;19939;-77
2022/06/16 01:00:13;;;;;;;;;;;;;;;19.53;60.56;99733.69;1085719;46;19939;-78
2022/06/16 01:01:17;;;;;;;;;;;;;;;19.51;60.62;99735.78;1085636;54;19938;-78
2022/06/16 01:02:28;;;;;;;;;;;;;;;19.51;60.57;99729.53;1085820;46;19946;-78
2022/06/16 01:04:51;;;;;;;;;;;;;;;19.48;60.64;99731.63;1084617;54;20062;-78
2022/06/16 01:05:52;;;;;;;;;;;;;;;19.53;60.37;99735.59;1085167;46;19943;-77
2022/06/16 01:07:00;;;;;;;;;;;;;;;19.56;60.16;99735.16;1085087;54;20022;-78
2022/06/16 01:08:04;;;;;;;;;;;;;;;19.51;60.61;99730.34;1084810;54;19958;-78
2022/06/16 01:09:10;;;;;;;;;;;;;;;19.42;60.39;99743.31;1085188;46;19969;-78
2022/06/16 01:10:14;;;;;;;;;;;;;;;19.41;60.71;99746.25;1084957;54;19958;-78
2022/06/16 01:13:41;;;;;;;;;;;;;;;19.42;60.63;99735.19;1085111;54;19939;-78
2022/06/16 01:14:19;;;;;;;;;;;;;;;19.46;60.43;99739.13;1085148;54;19953;-78
2022/06/16 01:15:28;;;;;;;;;;;;;;;19.44;60.27;99737.69;1085888;54;19950;-78
2022/06/16 01:16:34;;;;;;;;;;;;;;;19.44;60.31;99730.41;1085522;46;19947;-78
2022/06/16 01:17:42;;;;;;;;;;;;;;;19.48;60.15;99730.81;1085009;54;19970;-78
2022/06/16 01:18:48;;;;;;;;;;;;;;;19.45;60.45;99731.22;1084927;54;19947;-77
2022/06/16 01:20:00;;;;;;;;;;;;;;;19.41;60.65;99730.81;1085067;47;19950;-78
2022/06/16 01:21:06;;;;;;;;;;;;;;;19.33;60.75;99733.75;1085399;54;20014;-77
2022/06/16 01:22:13;;;;;;;;;;;;;;;19.34;61.00;99730.00;1085421;47;20349;-78
2022/06/16 01:23:35;;;;;;;;;;;;;;;19.29;60.99;99732.47;1085649;46;19953;-78
2022/06/16 01:24:52;;;;;;;;;;;;;;;19.29;61.16;99737.91;1085507;54;19974;-78
2022/06/16 01:26:02;;;;;;;;;;;;;;;19.28;61.05;99742.50;1085261;54;19938;-77
2022/06/16 01:27:13;;;;;;;;;;;;;;;19.24;60.75;99746.66;1085358;54;19942;-78
2022/06/16 01:28:20;;;;;;;;;;;;;;;19.23;61.21;99739.56;1085636;54;19974;-77
2022/06/16 01:29:30;;;;;;;;;;;;;;;19.29;61.01;99737.91;1085415;54;19939;-77
2022/06/16 01:30:35;;;;;;;;;;;;;;;19.34;60.61;99735.41;1085493;54;19950;-77
2022/06/16 01:31:44;;;;;;;;;;;;;;;19.35;60.79;99739.78;1085294;54;19951;-77
2022/06/16 01:32:48;;;;;;;;;;;;;;;19.37;60.39;99732.25;1085379;54;19946;-77
2022/06/16 01:33:55;;;;;;;;;;;;;;;19.34;60.67;99727.28;1085343;54;19946;-77
2022/06/16 01:35:02;;;;;;;;;;;;;;;19.32;60.82;99732.06;1085273;47;19946;-78
2022/06/16 01:36:15;;;;;;;;;;;;;;;19.27;61.09;99730.00;1085201;54;19947;-77
2022/06/16 01:37:21;;;;;;;;;;;;;;;19.32;60.68;99734.78;1085058;54;19947;-77
2022/06/16 01:38:28;;;;;;;;;;;;;;;19.28;61.25;99725.38;1085536;46;19947;-78
2022/06/16 01:39:33;;;;;;;;;;;;;;;19.27;60.73;99730.00;1085138;54;19946;-77
2022/06/16 01:40:40;;;;;;;;;;;;;;;19.20;60.88;99725.59;1085083;47;19939;-77
2022/06/16 01:41:47;;;;;;;;;;;;;;;19.20;60.65;99725.59;1085460;46;19939;-77
2022/06/16 01:42:56;;;;;;;;;;;;;;;19.16;60.56;99717.91;1085698;46;19958;-77
2022/06/16 01:43:59;;;;;;;;;;;;;;;19.25;60.54;99720.41;1086366;31;20448;-78
2022/06/16 01:45:18;;;;;;;;;;;;;;;19.20;60.12;99717.47;1085732;54;19943;-78
2022/06/16 01:46:22;;;;;;;;;;;;;;;19.12;60.74;99719.38;1085815;54;19953;-77
2022/06/16 01:47:30;;;;;;;;;;;;;;;19.12;60.31;99721.25;1085659;54;19946;-76
2022/06/16 01:48:33;;;;;;;;;;;;;;;19.12;60.39;99716.66;1085823;54;19954;-77
2022/06/16 01:49:40;;;;;;;;;;;;;;;19.07;60.74;99723.75;1085549;54;19938;-76
2022/06/16 01:50:43;;;;;;;;;;;;;;;18.99;61.11;99717.50;1086205;46;19954;-77
2022/06/16 01:51:50;;;;;;;;;;;;;;;18.96;61.09;99717.91;1085144;54;19953;-77
2022/06/16 01:52:53;;;;;;;;;;;;;;;18.96;61.48;99715.19;1085277;54;19946;-78
2022/06/16 01:54:00;;;;;;;;;;;;;;;18.93;61.39;99718.34;1084796;54;20872;-77
2022/06/16 01:55:03;;;;;;;;;;;;;;;18.93;61.51;99723.75;1084634;54;19950;-77
2022/06/16 01:56:10;;;;;;;;;;;;;;;18.93;61.87;99712.91;1084658;54;19970;-77
2022/06/16 01:57:14;;;;;;;;;;;;;;;18.91;61.60;99706.84;1085972;39;20389;-77
2022/06/16 01:58:20;;;;;;;;;;;;;;;18.86;62.04;99715.59;1085527;54;19947;-77
2022/06/16 01:59:24;;;;;;;;;;;;;;;18.84;61.85;99709.53;1085635;54;19947;-77
2022/06/16 02:00:31;;;;;;;;;;;;;;;18.85;62.10;99711.22;1085456;54;19977;-77
2022/06/16 02:01:36;;;;;;;;;;;;;;;18.83;61.91;99709.75;1085245;46;19939;-76
2022/06/16 02:02:42;;;;;;;;;;;;;;;18.77;61.82;99710.56;1085032;54;19947;-77
2022/06/16 02:03:46;;;;;;;;;;;;;;;18.79;61.80;99716.63;1085056;46;20467;-77
2022/06/16 02:04:56;;;;;;;;;;;;;;;18.79;62.05;99709.34;1084925;54;19946;-77
2022/06/16 02:05:59;;;;;;;;;;;;;;;18.84;61.67;99708.72;1085246;54;19938;-77
2022/06/16 02:07:06;;;;;;;;;;;;;;;18.78;61.83;99710.38;1085341;54;20010;-76
2022/06/16 02:08:11;;;;;;;;;;;;;;;18.74;61.92;99706.41;1084869;54;19947;-76
2022/06/16 02:09:17;;;;;;;;;;;;;;;18.76;61.90;99711.59;1084808;54;20011;-78
2022/06/16 02:10:22;;;;;;;;;;;;;;;18.65;61.76;99694.97;1085263;54;19939;-78
2022/06/16 02:11:29;;;;;;;;;;;;;;;18.62;61.95;99711.59;1085073;54;20030;-78
2022/06/16 02:13:54;;;;;;;;;;;;;;;18.64;61.83;99704.13;1085031;54;20449;-77
2022/06/16 02:14:56;;;;;;;;;;;;;;;18.68;61.81;99704.53;1085487;54;19947;-78
2022/06/16 02:16:11;;;;;;;;;;;;;;;18.67;61.94;99711.81;1085315;54;19973;-77
2022/06/16 02:17:13;;;;;;;;;;;;;;;18.70;61.58;99710.59;1085306;54;19958;-77
2022/06/16 02:18:18;;;;;;;;;;;;;;;18.68;61.91;99718.06;1085038;54;19977;-77
2022/06/16 02:19:23;;;;;;;;;;;;;;;18.67;62.01;99708.28;1085377;54;19970;-78
2022/06/16 02:20:30;;;;;;;;;;;;;;;18.67;61.90;99708.28;1085529;46;19939;-77
2022/06/16 02:21:36;;;;;;;;;;;;;;;18.68;62.07;99705.34;1086104;46;20505;-77
2022/06/16 02:22:37;;;;;;;;;;;;;;;18.65;62.44;99713.06;1085517;54;19962;-77
2022/06/16 02:23:41;;;;;;;;;;;;;;;18.65;62.30;99704.94;1085897;39;20322;-77
2022/06/16 02:24:42;;;;;;;;;;;;;;;18.65;62.65;99715.75;1085500;54;19958;-77
2022/06/16 02:25:47;;;;;;;;;;;;;;;18.66;62.36;99712.03;1085221;47;19938;-78
2022/06/16 02:26:49;;;;;;;;;;;;;;;18.62;62.55;99721.56;1087387;31;20429;-78
2022/06/16 02:27:53;;;;;;;;;;;;;;;18.61;62.72;99722.66;1084825;46;19958;-78
2022/06/16 02:28:56;;;;;;;;;;;;;;;18.63;62.84;99715.13;1084602;54;19953;-78
2022/06/16 02:30:00;;;;;;;;;;;;;;;18.62;62.95;99721.56;1084371;54;19959;-78
2022/06/16 02:31:12;;;;;;;;;;;;;;;18.64;62.79;99711.38;1084621;46;19970;-78
2022/06/16 02:32:22;;;;;;;;;;;;;;;18.67;62.66;99713.69;1084836;54;19939;-77
2022/06/16 02:33:27;;;;;;;;;;;;;;;18.66;62.71;99715.53;1084873;54;19939;-78
2022/06/16 02:34:36;;;;;;;;;;;;;;;18.68;62.47;99712.66;1085388;54;19950;-78
2022/06/16 02:35:42;;;;;;;;;;;;;;;18.64;62.60;99703.25;1085105;47;19939;-79
2022/06/16 02:36:56;;;;;;;;;;;;;;;18.61;62.27;99707.22;1084858;54;19945;-77
2022/06/16 02:38:04;;;;;;;;;;;;;;;18.76;61.23;99706.19;1084972;47;20509;-78
2022/06/16 02:39:18;;;;;;;;;;;;;;;18.80;60.81;99702.84;1085923;46;20432;-79
2022/06/16 02:40:27;;;;;;;;;;;;;;;18.87;60.39;99708.28;1084861;54;19962;-78
2022/06/16 02:41:33;;;;;;;;;;;;;;;18.95;60.10;99699.97;1085119;54;19962;-78
2022/06/16 02:42:40;;;;;;;;;;;;;;;19.01;60.04;99699.16;1085127;54;19951;-79
2022/06/16 02:43:50;;;;;;;;;;;;;;;19.07;59.73;99702.06;1084639;54;19950;-78
2022/06/16 02:44:59;;;;;;;;;;;;;;;19.09;59.88;99700.00;1084893;54;19946;-78
2022/06/16 02:46:05;;;;;;;;;;;;;;;19.14;59.36;99701.03;1084995;54;19950;-78
2022/06/16 02:47:12;;;;;;;;;;;;;;;19.21;59.22;99702.88;1085267;54;19951;-78
2022/06/16 02:48:18;;;;;;;;;;;;;;;19.25;59.06;99696.84;1085144;54;19970;-78
2022/06/16 02:49:25;;;;;;;;;;;;;;;19.27;58.76;99697.47;1085187;54;19946;-78
2022/06/16 02:50:35;;;;;;;;;;;;;;;19.32;58.47;99694.13;1084957;54;20030;-78
2022/06/16 02:51:40;;;;;;;;;;;;;;;19.22;58.98;99704.56;1085662;54;19945;-78
2022/06/16 02:52:48;;;;;;;;;;;;;;;19.15;59.36;99699.13;1085725;54;19947;-79
2022/06/16 02:53:55;;;;;;;;;;;;;;;19.15;59.42;99712.69;1085755;54;19951;-79
2022/06/16 02:55:05;;;;;;;;;;;;;;;19.22;58.98;99709.97;1086084;54;19946;-78
2022/06/16 02:56:10;;;;;;;;;;;;;;;19.25;59.06;99704.97;1086058;54;19958;-79
2022/06/16 02:57:21;;;;;;;;;;;;;;;19.22;59.29;99699.16;1085865;54;19939;-78
2022/06/16 02:58:23;;;;;;;;;;;;;;;19.29;58.99;99702.66;1085759;54;19935;-78
2022/06/16 02:59:39;;;;;;;;;;;;;;;19.29;59.56;99705.38;1084360;54;20413;-77
2022/06/16 03:00:42;;;;;;;;;;;;;;;19.35;59.31;99704.56;1084068;54;19942;-78
2022/06/16 03:01:46;;;;;;;;;;;;;;;19.36;59.62;99703.53;1084243;54;20734;-77
2022/06/16 03:02:49;;;;;;;;;;;;;;;19.38;59.54;99706.81;1084114;54;19973;-79
2022/06/16 03:04:03;;;;;;;;;;;;;;;19.38;59.77;99700.59;1083936;54;19962;-78
2022/06/16 03:05:05;;;;;;;;;;;;;;;19.38;59.65;99701.41;1083573;54;19943;-78
2022/06/16 03:06:09;;;;;;;;;;;;;;;19.37;59.69;99702.44;1083578;54;19938;-77
2022/06/16 03:07:11;;;;;;;;;;;;;;;19.36;59.94;99706.22;1083563;54;19939;-77
2022/06/16 03:08:14;;;;;;;;;;;;;;;19.36;59.95;99710.78;1083431;54;19947;-77
2022/06/16 03:09:16;;;;;;;;;;;;;;;19.34;60.11;99702.88;1083679;54;19978;-77
2022/06/16 03:10:50;;;;;;;;;;;;;;;19.33;59.96;99704.75;1083706;54;19974;-77
2022/06/16 03:11:42;;;;;;;;;;;;;;;19.34;60.44;99708.31;1083909;54;20484;-78
2022/06/16 03:12:45;;;;;;;;;;;;;;;19.32;60.49;99705.78;1083364;54;19946;-78
2022/06/16 03:13:48;;;;;;;;;;;;;;;19.30;60.59;99712.47;1083368;54;19951;-78
2022/06/16 03:14:51;;;;;;;;;;;;;;;19.32;60.55;99710.38;1083521;54;19939;-78
2022/06/16 03:15:53;;;;;;;;;;;;;;;19.27;61.18;99707.50;1083436;54;19938;-77
2022/06/16 03:16:57;;;;;;;;;;;;;;;19.27;61.31;99711.03;1083538;54;19954;-77
2022/06/16 03:18:01;;;;;;;;;;;;;;;19.26;60.81;99706.63;1083478;54;19947;-78
2022/06/16 03:19:05;;;;;;;;;;;;;;;19.22;60.94;99709.97;1083515;54;19949;-77
2022/06/16 03:20:08;;;;;;;;;;;;;;;19.16;60.83;99707.09;1083491;54;19954;-78
2022/06/16 03:21:12;;;;;;;;;;;;;;;19.09;61.35;99708.13;1083730;39;20448;-77
2022/06/16 03:22:13;;;;;;;;;;;;;;;19.08;61.14;99715.38;1083429;54;19945;-77
2022/06/16 03:23:17;;;;;;;;;;;;;;;19.05;61.31;99715.84;1083337;54;19970;-78
2022/06/16 03:24:21;;;;;;;;;;;;;;;18.96;62.06;99709.78;1083808;39;20368;-78
2022/06/16 03:25:22;;;;;;;;;;;;;;;18.99;61.64;99711.22;1083837;39;20646;-78
2022/06/16 03:26:26;;;;;;;;;;;;;;;18.96;62.42;99717.09;1082897;54;19973;-78
2022/06/16 03:27:27;;;;;;;;;;;;;;;18.92;62.23;99711.22;1082867;54;19946;-77
2022/06/16 03:28:31;;;;;;;;;;;;;;;18.90;61.77;99717.84;1083858;54;19947;-78
2022/06/16 03:29:32;;;;;;;;;;;;;;;18.84;62.06;99708.72;1084782;54;19950;-78
2022/06/16 03:30:43;;;;;;;;;;;;;;;18.75;62.33;99702.66;1085787;54;19957;-79
2022/06/16 03:31:44;;;;;;;;;;;;;;;18.70;62.34;99702.47;1085988;54;20045;-78
2022/06/16 03:32:49;;;;;;;;;;;;;;;18.65;63.06;99713.06;1086005;54;19986;-79
2022/06/16 03:33:56;;;;;;;;;;;;;;;18.63;62.96;99712.41;1085874;54;19950;-79
2022/06/16 03:34:57;;;;;;;;;;;;;;;18.63;62.76;99717.84;1085431;54;20484;-77
2022/06/16 03:36:01;;;;;;;;;;;;;;;18.66;62.58;99720.13;1085359;54;19954;-77
2022/06/16 03:37:05;;;;;;;;;;;;;;;18.67;62.33;99719.09;1085494;39;20302;-79
2022/06/16 03:38:07;;;;;;;;;;;;;;;18.66;61.99;99722.84;1084655;54;19947;-78
2022/06/16 03:39:11;;;;;;;;;;;;;;;18.70;62.10;99724.13;1084784;47;19969;-78
2022/06/16 03:40:13;;;;;;;;;;;;;;;18.71;61.78;99728.47;1084876;54;19946;-78
2022/06/16 03:41:17;;;;;;;;;;;;;;;18.73;61.86;99745.34;1084688;54;19958;-78
2022/06/16 03:42:18;;;;;;;;;;;;;;;18.75;61.48;99737.03;1085192;54;19962;-78
2022/06/16 03:43:22;;;;;;;;;;;;;;;18.74;61.47;99741.59;1084461;54;19951;-78
2022/06/16 03:44:23;;;;;;;;;;;;;;;18.71;61.68;99742.00;1084608;54;20054;-78
2022/06/16 03:45:27;;;;;;;;;;;;;;;18.70;61.70;99743.06;1084415;46;19961;-77
2022/06/16 03:46:30;;;;;;;;;;;;;;;18.63;62.02;99740.34;1084329;54;19970;-77
2022/06/16 03:47:32;;;;;;;;;;;;;;;18.63;61.61;99734.06;1084160;54;19970;-79
2022/06/16 03:48:36;;;;;;;;;;;;;;;18.62;61.94;99740.53;1084130;54;19970;-77
2022/06/16 03:49:43;;;;;;;;;;;;;;;18.61;61.92;99742.41;1084149;54;19953;-79
2022/06/16 03:50:47;;;;;;;;;;;;;;;18.61;61.64;99747.81;1084347;39;20380;-78
2022/06/16 03:51:48;;;;;;;;;;;;;;;18.61;61.59;99747.00;1084583;39;20360;-78
2022/06/16 03:52:52;;;;;;;;;;;;;;;18.63;61.70;99750.31;1084225;54;19947;-79
2022/06/16 03:53:53;;;;;;;;;;;;;;;18.66;61.41;99745.31;1083775;54;19947;-79
2022/06/16 03:54:56;;;;;;;;;;;;;;;18.70;61.17;99748.47;1083701;54;19973;-79
2022/06/16 03:56:00;;;;;;;;;;;;;;;18.65;61.63;99749.09;1083572;54;19977;-79
2022/06/16 03:57:01;;;;;;;;;;;;;;;18.61;61.71;99747.81;1083547;54;19969;-77
2022/06/16 03:58:05;;;;;;;;;;;;;;;18.56;61.69;99750.31;1083539;54;19958;-78
2022/06/16 03:59:08;;;;;;;;;;;;;;;18.59;61.46;99749.06;1084390;54;19946;-78
2022/06/16 04:00:13;;;;;;;;;;;;;;;18.62;61.47;99748.66;1084311;54;19989;-79
2022/06/16 04:01:17;;;;;;;;;;;;;;;18.65;61.31;99748.25;1084458;54;19947;-79
2022/06/16 04:02:18;;;;;;;;;;;;;;;18.67;61.04;99752.41;1084230;54;19950;-78
2022/06/16 04:04:38;;;;;;;;;;;;;;;18.71;61.02;99750.13;1084388;54;19947;-80
2022/06/16 04:05:42;;;;;;;;;;;;;;;18.75;60.96;99753.28;1083833;54;20001;-78
2022/06/16 04:06:45;;;;;;;;;;;;;;;18.75;60.66;99750.56;1084442;39;20352;-77
2022/06/16 04:07:46;;;;;;;;;;;;;;;18.59;61.71;99754.50;1084106;39;20349;-78
2022/06/16 04:08:50;;;;;;;;;;;;;;;18.45;62.28;99748.22;1083777;54;19946;-79
2022/06/16 04:09:51;;;;;;;;;;;;;;;18.36;62.45;99756.50;1083890;54;19947;-79
2022/06/16 04:10:55;;;;;;;;;;;;;;;18.35;62.67;99754.00;1084236;54;19986;-79
2022/06/16 04:11:56;;;;;;;;;;;;;;;18.33;62.88;99758.75;1084313;54;19945;-79
2022/06/16 04:13:00;;;;;;;;;;;;;;;18.37;62.63;99757.34;1084116;54;19947;-78
2022/06/16 04:14:07;;;;;;;;;;;;;;;18.50;62.07;99761.94;1083653;54;19959;-77
2022/06/16 04:15:09;;;;;;;;;;;;;;;18.58;61.82;99758.22;1084145;39;20439;-78
2022/06/16 04:16:12;;;;;;;;;;;;;;;18.61;61.70;99772.19;1084164;54;19947;-77
2022/06/16 04:17:16;;;;;;;;;;;;;;;18.54;61.67;99766.75;1084690;54;19947;-78
2022/06/16 04:18:18;;;;;;;;;;;;;;;18.52;61.91;99768.00;1084268;54;19954;-77
2022/06/16 04:19:23;;;;;;;;;;;;;;;18.57;61.68;99762.78;1084591;39;20356;-77
2022/06/16 04:20:24;;;;;;;;;;;;;;;18.53;61.91;99770.50;1083884;54;19953;-77
2022/06/16 04:21:31;;;;;;;;;;;;;;;18.52;61.80;99781.53;1083984;54;20012;-78
2022/06/16 04:22:32;;;;;;;;;;;;;;;18.49;62.09;99777.38;1085259;39;20333;-78
2022/06/16 04:23:36;;;;;;;;;;;;;;;18.47;62.50;99767.75;1086368;39;20754;-79
2022/06/16 04:24:40;;;;;;;;;;;;;;;18.44;62.98;99782.53;1085090;54;19946;-78
2022/06/16 04:25:41;;;;;;;;;;;;;;;18.42;63.71;99779.19;1086128;39;20290;-78
2022/06/16 04:26:45;;;;;;;;;;;;;;;18.43;64.22;99783.56;1085502;54;19946;-78
2022/06/16 04:27:46;;;;;;;;;;;;;;;18.42;64.44;99786.50;1086178;54;19954;-79
2022/06/16 04:28:50;;;;;;;;;;;;;;;18.38;64.44;99781.47;1086195;54;19947;-79
2022/06/16 04:29:52;;;;;;;;;;;;;;;18.41;64.41;99788.38;1085757;54;19938;-77
2022/06/16 04:30:55;;;;;;;;;;;;;;;18.31;64.17;99786.03;1085201;46;19947;-78
2022/06/16 04:31:58;;;;;;;;;;;;;;;18.32;64.17;99793.13;1085458;54;19954;-77
2022/06/16 04:33:02;;;;;;;;;;;;;;;18.33;64.11;99788.53;1085218;54;19954;-77
2022/06/16 04:34:06;;;;;;;;;;;;;;;18.35;63.91;99787.31;1085909;46;19951;-78
2022/06/16 04:35:08;;;;;;;;;;;;;;;18.36;63.73;99777.31;1085334;54;19938;-77
2022/06/16 04:36:12;;;;;;;;;;;;;;;18.37;64.02;99776.28;1085449;54;19945;-77
2022/06/16 04:37:16;;;;;;;;;;;;;;;18.37;64.12;99785.22;1083918;54;19938;-78
2022/06/16 04:38:19;;;;;;;;;;;;;;;18.42;64.08;99781.91;1084060;47;20429;-78
2022/06/16 04:39:23;;;;;;;;;;;;;;;18.47;64.07;99779.44;1083865;47;20480;-78
2022/06/16 04:40:25;;;;;;;;;;;;;;;18.52;63.91;99779.66;1083732;54;19953;-78
2022/06/16 04:41:28;;;;;;;;;;;;;;;18.62;63.71;99775.72;1083953;54;19942;-78
2022/06/16 04:42:30;;;;;;;;;;;;;;;18.74;63.15;99784.91;1084061;54;19942;-77
2022/06/16 04:43:34;;;;;;;;;;;;;;;18.77;63.24;99775.53;1084194;54;19969;-78
2022/06/16 04:44:35;;;;;;;;;;;;;;;18.78;63.28;99775.34;1083860;54;20528;-77
2022/06/16 04:45:39;;;;;;;;;;;;;;;18.75;63.71;99780.34;1083797;54;19939;-78
2022/06/16 04:46:40;;;;;;;;;;;;;;;18.76;63.49;99780.13;1083923;54;19994;-78
2022/06/16 04:47:44;;;;;;;;;;;;;;;18.77;63.38;99773.69;1083933;54;19954;-78
2022/06/16 04:48:46;;;;;;;;;;;;;;;18.86;63.01;99777.03;1083176;54;19947;-78
2022/06/16 04:49:50;;;;;;;;;;;;;;;18.90;62.76;99780.16;1083315;54;20464;-78
2022/06/16 04:50:53;;;;;;;;;;;;;;;19.00;62.65;99786.03;1083158;54;19947;-78
2022/06/16 04:51:54;;;;;;;;;;;;;;;19.03;62.52;99788.34;1083484;54;19950;-78
2022/06/16 04:53:07;;;;;;;;;;;;;;;19.06;62.23;99787.09;1084033;46;20016;-78
2022/06/16 04:54:08;;;;;;;;;;;;;;;19.08;62.63;99788.53;1086186;39;20306;-78
2022/06/16 04:55:13;;;;;;;;;;;;;;;19.15;62.15;99781.25;1084743;54;19947;-78
2022/06/16 04:56:14;;;;;;;;;;;;;;;19.15;61.94;99781.25;1084500;54;20062;-78
2022/06/16 04:57:18;;;;;;;;;;;;;;;19.09;61.61;99792.91;1084070;54;20444;-78
2022/06/16 04:58:19;;;;;;;;;;;;;;;19.07;61.24;99794.16;1084028;54;19966;-78
2022/06/16 04:59:23;;;;;;;;;;;;;;;19.08;61.36;99787.72;1084537;54;19939;-78
2022/06/16 05:00:24;;;;;;;;;;;;;;;19.13;61.53;99783.34;1084469;54;19954;-78
2022/06/16 05:01:28;;;;;;;;;;;;;;;19.24;61.05;99783.75;1084837;54;19946;-79
2022/06/16 05:02:29;;;;;;;;;;;;;;;19.32;60.97;99786.25;1084556;54;19977;-78
2022/06/16 05:03:32;;;;;;;;;;;;;;;19.37;60.60;99785.63;1084266;54;19942;-78
2022/06/16 05:04:34;;;;;;;;;;;;;;;19.42;60.69;99781.25;1084154;54;19947;-78
2022/06/16 05:05:38;;;;;;;;;;;;;;;19.52;60.60;99785.44;1083961;54;20014;-79
2022/06/16 05:06:39;;;;;;;;;;;;;;;19.58;60.25;99790.00;1084126;46;19953;-78
2022/06/16 05:07:43;;;;;;;;;;;;;;;19.62;59.85;99791.25;1084217;54;19938;-79
2022/06/16 05:08:48;;;;;;;;;;;;;;;19.70;59.77;99788.31;1084253;54;19939;-78
2022/06/16 05:09:52;;;;;;;;;;;;;;;19.72;59.72;99794.38;1084284;54;19973;-77
2022/06/16 05:10:53;;;;;;;;;;;;;;;19.64;60.09;99794.59;1083982;54;19954;-78
2022/06/16 05:11:57;;;;;;;;;;;;;;;19.44;60.20;99803.56;1084170;54;19946;-77
2022/06/16 05:12:58;;;;;;;;;;;;;;;19.30;61.15;99810.88;1084052;54;19950;-78
2022/06/16 05:14:02;;;;;;;;;;;;;;;19.25;60.87;99813.34;1084020;54;19973;-77
2022/06/16 05:15:05;;;;;;;;;;;;;;;19.19;61.06;99819.63;1084054;46;20033;-77
2022/06/16 05:16:09;;;;;;;;;;;;;;;19.24;61.34;99814.41;1083722;54;19977;-76
2022/06/16 05:17:10;;;;;;;;;;;;;;;19.09;61.29;99820.00;1083969;54;19951;-78
2022/06/16 05:18:14;;;;;;;;;;;;;;;19.05;61.12;99817.91;1084374;39;20060;-76
2022/06/16 05:19:16;;;;;;;;;;;;;;;19.05;60.91;99816.06;1083893;54;19962;-76
2022/06/16 05:20:20;;;;;;;;;;;;;;;19.21;60.80;99806.69;1084384;54;19946;-77
2022/06/16 05:21:21;;;;;;;;;;;;;;;19.31;60.32;99811.69;1084177;54;19957;-77
2022/06/16 05:22:25;;;;;;;;;;;;;;;19.31;60.31;99807.13;1083604;54;19947;-77
2022/06/16 05:23:26;;;;;;;;;;;;;;;19.31;60.61;99803.56;1084096;54;19950;-78
2022/06/16 05:24:32;;;;;;;;;;;;;;;19.29;60.65;99806.50;1083915;54;20513;-77
2022/06/16 05:25:33;;;;;;;;;;;;;;;19.27;60.74;99811.28;1083917;54;19939;-77
2022/06/16 05:26:37;;;;;;;;;;;;;;;19.23;60.69;99810.00;1084182;54;20425;-77
2022/06/16 05:27:38;;;;;;;;;;;;;;;19.23;60.65;99818.13;1083890;54;19969;-77
2022/06/16 05:28:42;;;;;;;;;;;;;;;19.25;60.62;99807.13;1084063;54;19939;-78
2022/06/16 05:29:43;;;;;;;;;;;;;;;19.29;60.60;99805.63;1084324;46;20461;-77
2022/06/16 05:30:47;;;;;;;;;;;;;;;19.31;60.44;99804.41;1083709;54;19970;-77
2022/06/16 05:31:49;;;;;;;;;;;;;;;19.28;60.70;99809.38;1083240;54;19946;-78
2022/06/16 05:32:53;;;;;;;;;;;;;;;19.16;60.92;99815.44;1082862;54;19950;-77
2022/06/16 05:33:54;;;;;;;;;;;;;;;19.10;61.40;99827.09;1082909;54;19950;-78
2022/06/16 05:34:58;;;;;;;;;;;;;;;19.08;61.59;99826.47;1083145;54;19947;-76
2022/06/16 05:36:01;;;;;;;;;;;;;;;19.09;61.66;99822.72;1083110;54;19946;-76
2022/06/16 05:37:05;;;;;;;;;;;;;;;19.25;61.54;99813.34;1083266;54;19958;-76
2022/06/16 05:38:06;;;;;;;;;;;;;;;19.33;61.22;99812.31;1083363;54;19974;-77
2022/06/16 05:39:10;;;;;;;;;;;;;;;19.22;61.63;99802.94;1083348;54;19947;-77
2022/06/16 05:40:13;;;;;;;;;;;;;;;19.38;60.90;99796.25;1083292;54;19947;-77
2022/06/16 05:41:18;;;;;;;;;;;;;;;19.39;61.19;99802.53;1083650;54;19970;-77
2022/06/16 05:42:20;;;;;;;;;;;;;;;19.28;61.59;99806.69;1083736;54;19954;-77
2022/06/16 05:43:23;;;;;;;;;;;;;;;19.36;61.16;99798.38;1083922;54;19947;-78
2022/06/16 05:44:27;;;;;;;;;;;;;;;19.39;61.26;99797.94;1084087;54;19950;-77
2022/06/16 05:45:28;;;;;;;;;;;;;;;19.47;60.83;99788.75;1084312;54;19956;-77